YVR weather

Vancouver International Airport
Vancouver, British Columbia, Canada

Public forecast

Using degrees Celsius for public forecast. Weather courtesy of forecast.io.

METAR (pilot weather report)

Retrieved 2017/05/25 00:00 UTC (58 minutes ago):

CYVR 250000Z 30010KT 30SM FEW045 SCT220 15/08 A2994 RMK CU1CI2 SLP141

TAF (pilot weather forecast)

Forecast is more than 12 hours old.

Retrieved 2017/05/24 00:42 UTC (1 day ago):

TAF CYVR 242338Z 2500/2606 26010KT P6SM FEW040 BECMG 2503/2505 VRB03KT BECMG 2506/2508 08005KT FM251200 08007KT P6SM BKN120 BECMG 2516/2518 28010KT FM252100 28010KT P6SM FEW050 FEW100 RMK NXT FCST BY 250300Z